sensor_id;sensor_type;location;lat;lon;timestamp;P1;durP1;ratioP1;P2;durP2;ratioP2
18084;SDS011;9169;44.492;11.372;2023-03-01T00:01:42;22.80;;;17.17;;
18084;SDS011;9169;44.492;11.372;2023-03-01T00:04:10;27.10;;;16.87;;
18084;SDS011;9169;44.492;11.372;2023-03-01T00:06:39;23.80;;;16.03;;
18084;SDS011;9169;44.492;11.372;2023-03-01T00:09:07;23.63;;;16.37;;
18084;SDS011;9169;44.492;11.372;2023-03-01T00:11:36;20.23;;;15.13;;
18084;SDS011;9169;44.492;11.372;2023-03-01T00:14:05;25.47;;;17.20;;
18084;SDS011;9169;44.492;11.372;2023-03-01T00:16:35;24.60;;;15.80;;
18084;SDS011;9169;44.492;11.372;2023-03-01T00:19:06;26.30;;;16.43;;
18084;SDS011;9169;44.492;11.372;2023-03-01T00:21:37;23.47;;;17.47;;
18084;SDS011;9169;44.492;11.372;2023-03-01T00:24:05;26.73;;;16.97;;
18084;SDS011;9169;44.492;11.372;2023-03-01T00:26:34;20.27;;;15.40;;
18084;SDS011;9169;44.492;11.372;2023-03-01T00:29:03;23.80;;;15.50;;
18084;SDS011;9169;44.492;11.372;2023-03-01T00:31:33;26.07;;;16.93;;
18084;SDS011;9169;44.492;11.372;2023-03-01T00:34:02;26.87;;;16.63;;
18084;SDS011;9169;44.492;11.372;2023-03-01T00:36:32;26.03;;;16.80;;
18084;SDS011;9169;44.492;11.372;2023-03-01T00:39:03;23.97;;;17.13;;
18084;SDS011;9169;44.492;11.372;2023-03-01T00:41:34;20.87;;;14.93;;
18084;SDS011;9169;44.492;11.372;2023-03-01T00:44:02;20.60;;;15.10;;
18084;SDS011;9169;44.492;11.372;2023-03-01T00:46:32;20.90;;;14.90;;
18084;SDS011;9169;44.492;11.372;2023-03-01T00:49:01;23.33;;;16.50;;
18084;SDS011;9169;44.492;11.372;2023-03-01T00:51:31;19.93;;;16.63;;
18084;SDS011;9169;44.492;11.372;2023-03-01T00:54:01;21.70;;;15.57;;
18084;SDS011;9169;44.492;11.372;2023-03-01T00:56:30;21.53;;;17.23;;
18084;SDS011;9169;44.492;11.372;2023-03-01T00:58:59;24.40;;;15.77;;
18084;SDS011;9169;44.492;11.372;2023-03-01T01:01:28;23.00;;;15.77;;
18084;SDS011;9169;44.492;11.372;2023-03-01T01:04:00;24.27;;;16.27;;
18084;SDS011;9169;44.492;11.372;2023-03-01T01:06:30;22.63;;;16.33;;
18084;SDS011;9169;44.492;11.372;2023-03-01T01:09:00;22.50;;;15.17;;
18084;SDS011;9169;44.492;11.372;2023-03-01T01:11:30;19.30;;;14.83;;
18084;SDS011;9169;44.492;11.372;2023-03-01T01:13:58;24.03;;;17.43;;
18084;SDS011;9169;44.492;11.372;2023-03-01T01:16:28;22.47;;;14.93;;
18084;SDS011;9169;44.492;11.372;2023-03-01T01:18:59;23.80;;;15.83;;
18084;SDS011;9169;44.492;11.372;2023-03-01T01:21:27;26.90;;;15.30;;
18084;SDS011;9169;44.492;11.372;2023-03-01T01:23:56;21.80;;;16.50;;
18084;SDS011;9169;44.492;11.372;2023-03-01T01:26:25;21.60;;;15.30;;
18084;SDS011;9169;44.492;11.372;2023-03-01T01:28:55;23.33;;;16.20;;
18084;SDS011;9169;44.492;11.372;2023-03-01T01:31:24;23.37;;;15.37;;
18084;SDS011;9169;44.492;11.372;2023-03-01T01:33:55;22.07;;;14.83;;
18084;SDS011;9169;44.492;11.372;2023-03-01T01:36:25;21.70;;;14.73;;
18084;SDS011;9169;44.492;11.372;2023-03-01T01:38:54;18.67;;;14.80;;
18084;SDS011;9169;44.492;11.372;2023-03-01T01:41:23;25.40;;;15.83;;
18084;SDS011;9169;44.492;11.372;2023-03-01T01:44:10;21.00;;;16.73;;
18084;SDS011;9169;44.492;11.372;2023-03-01T01:46:44;20.70;;;15.03;;
18084;SDS011;9169;44.492;11.372;2023-03-01T01:49:20;25.40;;;15.20;;
18084;SDS011;9169;44.492;11.372;2023-03-01T01:51:55;20.73;;;14.47;;
18084;SDS011;9169;44.492;11.372;2023-03-01T01:54:29;23.00;;;15.10;;
18084;SDS011;9169;44.492;11.372;2023-03-01T01:57:06;21.50;;;16.20;;
18084;SDS011;9169;44.492;11.372;2023-03-01T01:59:36;22.80;;;15.77;;
18084;SDS011;9169;44.492;11.372;2023-03-01T02:02:06;18.60;;;14.83;;
18084;SDS011;9169;44.492;11.372;2023-03-01T02:04:35;18.87;;;14.53;;
18084;SDS011;9169;44.492;11.372;2023-03-01T02:07:06;18.43;;;15.20;;
18084;SDS011;9169;44.492;11.372;2023-03-01T02:09:42;20.30;;;15.50;;
18084;SDS011;9169;44.492;11.372;2023-03-01T02:12:14;22.27;;;15.37;;
18084;SDS011;9169;44.492;11.372;2023-03-01T02:14:44;21.10;;;14.47;;
18084;SDS011;9169;44.492;11.372;2023-03-01T02:17:12;28.97;;;15.87;;
18084;SDS011;9169;44.492;11.372;2023-03-01T02:19:44;22.30;;;15.90;;
18084;SDS011;9169;44.492;11.372;2023-03-01T02:22:27;19.17;;;14.17;;
18084;SDS011;9169;44.492;11.372;2023-03-01T02:25:01;18.93;;;15.00;;
18084;SDS011;9169;44.492;11.372;2023-03-01T02:27:40;20.23;;;15.83;;
18084;SDS011;9169;44.492;11.372;2023-03-01T02:30:15;21.17;;;14.90;;
18084;SDS011;9169;44.492;11.372;2023-03-01T02:32:43;24.10;;;15.10;;
18084;SDS011;9169;44.492;11.372;2023-03-01T02:35:13;25.00;;;15.80;;
18084;SDS011;9169;44.492;11.372;2023-03-01T02:37:43;21.27;;;15.30;;
18084;SDS011;9169;44.492;11.372;2023-03-01T02:40:14;18.13;;;15.20;;
18084;SDS011;9169;44.492;11.372;2023-03-01T02:42:46;21.23;;;14.60;;
18084;SDS011;9169;44.492;11.372;2023-03-01T02:45:19;21.10;;;15.10;;
18084;SDS011;9169;44.492;11.372;2023-03-01T02:47:49;20.90;;;14.77;;
18084;SDS011;9169;44.492;11.372;2023-03-01T02:50:22;22.37;;;15.97;;
18084;SDS011;9169;44.492;11.372;2023-03-01T02:53:04;20.00;;;14.70;;
18084;SDS011;9169;44.492;11.372;2023-03-01T02:55:38;22.43;;;15.53;;
18084;SDS011;9169;44.492;11.372;2023-03-01T02:58:07;19.77;;;14.10;;
18084;SDS011;9169;44.492;11.372;2023-03-01T03:00:38;23.90;;;15.03;;
18084;SDS011;9169;44.492;11.372;2023-03-01T03:03:12;21.43;;;16.00;;
18084;SDS011;9169;44.492;11.372;2023-03-01T03:05:42;18.80;;;13.90;;
18084;SDS011;9169;44.492;11.372;2023-03-01T03:08:11;20.70;;;14.73;;
18084;SDS011;9169;44.492;11.372;2023-03-01T03:10:40;20.80;;;15.07;;
18084;SDS011;9169;44.492;11.372;2023-03-01T03:13:10;29.03;;;16.23;;
18084;SDS011;9169;44.492;11.372;2023-03-01T03:15:43;20.30;;;14.60;;
18084;SDS011;9169;44.492;11.372;2023-03-01T03:18:12;21.73;;;14.93;;
18084;SDS011;9169;44.492;11.372;2023-03-01T03:20:42;22.03;;;15.97;;
18084;SDS011;9169;44.492;11.372;2023-03-01T03:23:11;18.97;;;15.63;;
18084;SDS011;9169;44.492;11.372;2023-03-01T03:25:40;19.87;;;16.00;;
18084;SDS011;9169;44.492;11.372;2023-03-01T03:28:08;23.27;;;15.83;;
18084;SDS011;9169;44.492;11.372;2023-03-01T03:30:38;23.90;;;15.77;;
18084;SDS011;9169;44.492;11.372;2023-03-01T03:33:09;25.77;;;16.43;;
18084;SDS011;9169;44.492;11.372;2023-03-01T03:35:40;23.60;;;16.40;;
18084;SDS011;9169;44.492;11.372;2023-03-01T03:38:11;20.43;;;15.70;;
18084;SDS011;9169;44.492;11.372;2023-03-01T03:40:43;21.50;;;16.20;;
18084;SDS011;9169;44.492;11.372;2023-03-01T03:43:14;22.80;;;16.73;;
18084;SDS011;9169;44.492;11.372;2023-03-01T03:45:45;19.17;;;15.73;;
18084;SDS011;9169;44.492;11.372;2023-03-01T03:48:16;21.17;;;16.60;;
18084;SDS011;9169;44.492;11.372;2023-03-01T03:50:47;24.07;;;16.90;;
18084;SDS011;9169;44.492;11.372;2023-03-01T03:53:16;21.17;;;16.50;;
18084;SDS011;9169;44.492;11.372;2023-03-01T03:55:46;20.37;;;16.53;;
18084;SDS011;9169;44.492;11.372;2023-03-01T03:58:15;20.27;;;16.43;;
18084;SDS011;9169;44.492;11.372;2023-03-01T04:00:46;21.00;;;17.30;;
18084;SDS011;9169;44.492;11.372;2023-03-01T04:03:17;23.87;;;16.57;;
18084;SDS011;9169;44.492;11.372;2023-03-01T04:05:47;22.03;;;16.10;;
18084;SDS011;9169;44.492;11.372;2023-03-01T04:08:17;19.30;;;15.30;;
18084;SDS011;9169;44.492;11.372;2023-03-01T04:10:48;23.73;;;16.33;;
18084;SDS011;9169;44.492;11.372;2023-03-01T04:13:18;20.13;;;15.80;;
18084;SDS011;9169;44.492;11.372;2023-03-01T04:15:48;23.03;;;16.50;;
18084;SDS011;9169;44.492;11.372;2023-03-01T04:18:19;25.07;;;15.30;;
18084;SDS011;9169;44.492;11.372;2023-03-01T04:20:48;23.23;;;16.00;;
18084;SDS011;9169;44.492;11.372;2023-03-01T04:23:19;19.90;;;16.00;;
18084;SDS011;9169;44.492;11.372;2023-03-01T04:25:49;22.57;;;17.70;;
18084;SDS011;9169;44.492;11.372;2023-03-01T04:28:20;25.77;;;16.77;;
18084;SDS011;9169;44.492;11.372;2023-03-01T04:30:50;22.20;;;16.40;;
18084;SDS011;9169;44.492;11.372;2023-03-01T04:33:21;23.00;;;17.43;;
18084;SDS011;9169;44.492;11.372;2023-03-01T04:35:50;21.43;;;16.37;;
18084;SDS011;9169;44.492;11.372;2023-03-01T04:38:19;20.07;;;15.50;;
18084;SDS011;9169;44.492;11.372;2023-03-01T04:40:47;26.63;;;16.83;;
18084;SDS011;9169;44.492;11.372;2023-03-01T04:43:16;22.10;;;16.83;;
18084;SDS011;9169;44.492;11.372;2023-03-01T04:45:44;20.73;;;16.63;;
18084;SDS011;9169;44.492;11.372;2023-03-01T04:48:12;22.10;;;16.73;;
18084;SDS011;9169;44.492;11.372;2023-03-01T04:50:42;22.30;;;16.47;;
18084;SDS011;9169;44.492;11.372;2023-03-01T04:53:11;20.87;;;17.00;;
18084;SDS011;9169;44.492;11.372;2023-03-01T04:55:39;25.00;;;17.50;;
18084;SDS011;9169;44.492;11.372;2023-03-01T04:58:07;22.17;;;16.53;;
18084;SDS011;9169;44.492;11.372;2023-03-01T05:00:36;23.40;;;16.00;;
18084;SDS011;9169;44.492;11.372;2023-03-01T05:03:04;21.50;;;16.10;;
18084;SDS011;9169;44.492;11.372;2023-03-01T05:05:33;21.60;;;15.70;;
18084;SDS011;9169;44.492;11.372;2023-03-01T05:08:05;22.07;;;18.03;;
18084;SDS011;9169;44.492;11.372;2023-03-01T05:10:35;24.10;;;17.27;;
18084;SDS011;9169;44.492;11.372;2023-03-01T05:13:05;21.77;;;16.47;;
18084;SDS011;9169;44.492;11.372;2023-03-01T05:15:34;23.13;;;18.27;;
18084;SDS011;9169;44.492;11.372;2023-03-01T05:18:03;23.27;;;17.77;;
18084;SDS011;9169;44.492;11.372;2023-03-01T05:20:37;22.30;;;16.60;;
18084;SDS011;9169;44.492;11.372;2023-03-01T05:23:07;23.90;;;17.60;;
18084;SDS011;9169;44.492;11.372;2023-03-01T05:25:35;25.63;;;17.97;;
18084;SDS011;9169;44.492;11.372;2023-03-01T05:28:08;28.70;;;18.77;;
18084;SDS011;9169;44.492;11.372;2023-03-01T05:30:38;24.63;;;18.03;;
18084;SDS011;9169;44.492;11.372;2023-03-01T05:33:07;23.57;;;18.10;;
18084;SDS011;9169;44.492;11.372;2023-03-01T05:35:40;25.10;;;19.30;;
18084;SDS011;9169;44.492;11.372;2023-03-01T05:38:11;25.40;;;17.70;;
18084;SDS011;9169;44.492;11.372;2023-03-01T05:40:40;25.13;;;18.00;;
18084;SDS011;9169;44.492;11.372;2023-03-01T05:43:10;24.13;;;18.43;;
18084;SDS011;9169;44.492;11.372;2023-03-01T05:45:40;21.73;;;16.40;;
18084;SDS011;9169;44.492;11.372;2023-03-01T05:48:09;24.20;;;18.10;;
18084;SDS011;9169;44.492;11.372;2023-03-01T05:50:39;25.70;;;18.87;;
18084;SDS011;9169;44.492;11.372;2023-03-01T05:53:11;23.47;;;17.90;;
18084;SDS011;9169;44.492;11.372;2023-03-01T05:55:41;30.70;;;21.57;;
18084;SDS011;9169;44.492;11.372;2023-03-01T05:58:11;27.67;;;19.80;;
18084;SDS011;9169;44.492;11.372;2023-03-01T06:00:41;23.20;;;18.47;;
18084;SDS011;9169;44.492;11.372;2023-03-01T06:03:11;28.83;;;20.13;;
18084;SDS011;9169;44.492;11.372;2023-03-01T06:05:41;24.20;;;19.57;;
18084;SDS011;9169;44.492;11.372;2023-03-01T06:08:12;23.33;;;18.50;;
18084;SDS011;9169;44.492;11.372;2023-03-01T06:10:41;23.43;;;18.63;;
18084;SDS011;9169;44.492;11.372;2023-03-01T06:13:09;25.63;;;19.40;;
18084;SDS011;9169;44.492;11.372;2023-03-01T06:15:37;26.63;;;19.77;;
18084;SDS011;9169;44.492;11.372;2023-03-01T06:18:06;26.03;;;19.53;;
18084;SDS011;9169;44.492;11.372;2023-03-01T06:20:37;31.53;;;20.53;;
18084;SDS011;9169;44.492;11.372;2023-03-01T06:23:05;26.53;;;20.03;;
18084;SDS011;9169;44.492;11.372;2023-03-01T06:25:37;24.43;;;17.50;;
18084;SDS011;9169;44.492;11.372;2023-03-01T06:28:05;26.43;;;18.87;;
18084;SDS011;9169;44.492;11.372;2023-03-01T06:30:33;27.93;;;20.13;;
18084;SDS011;9169;44.492;11.372;2023-03-01T06:33:02;24.63;;;18.60;;
18084;SDS011;9169;44.492;11.372;2023-03-01T06:35:30;25.27;;;20.03;;
18084;SDS011;9169;44.492;11.372;2023-03-01T06:38:00;26.90;;;21.40;;
18084;SDS011;9169;44.492;11.372;2023-03-01T06:40:30;30.13;;;21.33;;
18084;SDS011;9169;44.492;11.372;2023-03-01T06:43:00;32.93;;;21.80;;
18084;SDS011;9169;44.492;11.372;2023-03-01T06:45:28;28.43;;;22.30;;
18084;SDS011;9169;44.492;11.372;2023-03-01T06:48:03;29.50;;;21.27;;
18084;SDS011;9169;44.492;11.372;2023-03-01T06:50:32;30.07;;;21.87;;
18084;SDS011;9169;44.492;11.372;2023-03-01T06:53:01;32.83;;;22.50;;
18084;SDS011;9169;44.492;11.372;2023-03-01T06:55:30;38.20;;;21.30;;
18084;SDS011;9169;44.492;11.372;2023-03-01T06:57:59;28.50;;;22.00;;
18084;SDS011;9169;44.492;11.372;2023-03-01T07:00:30;26.33;;;17.90;;
18084;SDS011;9169;44.492;11.372;2023-03-01T07:02:59;31.03;;;22.80;;
18084;SDS011;9169;44.492;11.372;2023-03-01T07:05:29;31.70;;;22.67;;
18084;SDS011;9169;44.492;11.372;2023-03-01T07:07:58;28.57;;;21.83;;
18084;SDS011;9169;44.492;11.372;2023-03-01T07:10:26;29.57;;;21.50;;
18084;SDS011;9169;44.492;11.372;2023-03-01T07:12:55;26.13;;;19.57;;
18084;SDS011;9169;44.492;11.372;2023-03-01T07:15:25;29.00;;;19.17;;
18084;SDS011;9169;44.492;11.372;2023-03-01T07:17:55;30.27;;;21.47;;
18084;SDS011;9169;44.492;11.372;2023-03-01T07:20:24;25.00;;;20.60;;
18084;SDS011;9169;44.492;11.372;2023-03-01T07:22:52;25.40;;;19.80;;
18084;SDS011;9169;44.492;11.372;2023-03-01T07:25:21;36.97;;;20.67;;
18084;SDS011;9169;44.492;11.372;2023-03-01T07:27:50;31.20;;;19.80;;
18084;SDS011;9169;44.492;11.372;2023-03-01T07:30:19;32.00;;;20.80;;
18084;SDS011;9169;44.492;11.372;2023-03-01T07:32:50;29.40;;;21.30;;
18084;SDS011;9169;44.492;11.372;2023-03-01T07:35:21;26.60;;;17.43;;
18084;SDS011;9169;44.492;11.372;2023-03-01T07:37:49;34.20;;;22.03;;
18084;SDS011;9169;44.492;11.372;2023-03-01T07:40:17;32.27;;;22.90;;
18084;SDS011;9169;44.492;11.372;2023-03-01T07:42:46;29.60;;;21.80;;
18084;SDS011;9169;44.492;11.372;2023-03-01T07:45:15;28.30;;;21.57;;
18084;SDS011;9169;44.492;11.372;2023-03-01T07:47:43;34.57;;;22.30;;
18084;SDS011;9169;44.492;11.372;2023-03-01T07:50:13;31.57;;;22.80;;
18084;SDS011;9169;44.492;11.372;2023-03-01T07:52:41;33.30;;;23.67;;
18084;SDS011;9169;44.492;11.372;2023-03-01T07:55:12;31.70;;;23.03;;
18084;SDS011;9169;44.492;11.372;2023-03-01T07:57:40;36.07;;;24.50;;
18084;SDS011;9169;44.492;11.372;2023-03-01T08:00:10;36.70;;;25.60;;
18084;SDS011;9169;44.492;11.372;2023-03-01T08:02:39;35.73;;;26.63;;
18084;SDS011;9169;44.492;11.372;2023-03-01T08:05:08;36.57;;;27.43;;
18084;SDS011;9169;44.492;11.372;2023-03-01T08:07:39;34.30;;;26.50;;
18084;SDS011;9169;44.492;11.372;2023-03-01T08:10:08;36.97;;;26.00;;
18084;SDS011;9169;44.492;11.372;2023-03-01T08:12:37;40.90;;;29.83;;
18084;SDS011;9169;44.492;11.372;2023-03-01T08:15:06;35.20;;;24.50;;
18084;SDS011;9169;44.492;11.372;2023-03-01T08:17:35;37.23;;;28.03;;
18084;SDS011;9169;44.492;11.372;2023-03-01T08:20:04;37.00;;;27.90;;
18084;SDS011;9169;44.492;11.372;2023-03-01T08:22:33;43.57;;;27.57;;
18084;SDS011;9169;44.492;11.372;2023-03-01T08:25:03;39.40;;;29.53;;
18084;SDS011;9169;44.492;11.372;2023-03-01T08:27:32;38.60;;;26.97;;
18084;SDS011;9169;44.492;11.372;2023-03-01T08:30:00;37.10;;;27.63;;
18084;SDS011;9169;44.492;11.372;2023-03-01T08:32:29;35.60;;;23.67;;
18084;SDS011;9169;44.492;11.372;2023-03-01T08:34:57;40.00;;;27.57;;
18084;SDS011;9169;44.492;11.372;2023-03-01T08:37:25;38.47;;;27.30;;
18084;SDS011;9169;44.492;11.372;2023-03-01T08:39:57;36.10;;;27.90;;
18084;SDS011;9169;44.492;11.372;2023-03-01T08:42:27;38.40;;;27.23;;
18084;SDS011;9169;44.492;11.372;2023-03-01T08:44:55;36.30;;;27.37;;
18084;SDS011;9169;44.492;11.372;2023-03-01T08:47:23;39.40;;;28.63;;
18084;SDS011;9169;44.492;11.372;2023-03-01T08:49:52;39.30;;;27.63;;
18084;SDS011;9169;44.492;11.372;2023-03-01T08:52:21;37.33;;;27.13;;
18084;SDS011;9169;44.492;11.372;2023-03-01T08:54:51;36.67;;;27.43;;
18084;SDS011;9169;44.492;11.372;2023-03-01T08:57:19;38.97;;;27.43;;
18084;SDS011;9169;44.492;11.372;2023-03-01T08:59:49;34.33;;;25.63;;
18084;SDS011;9169;44.492;11.372;2023-03-01T09:02:17;35.70;;;27.60;;
18084;SDS011;9169;44.492;11.372;2023-03-01T09:04:46;37.03;;;25.73;;
18084;SDS011;9169;44.492;11.372;2023-03-01T09:07:15;33.97;;;26.50;;
18084;SDS011;9169;44.492;11.372;2023-03-01T09:09:43;35.77;;;26.63;;
18084;SDS011;9169;44.492;11.372;2023-03-01T09:12:11;34.40;;;25.60;;
18084;SDS011;9169;44.492;11.372;2023-03-01T09:14:40;32.77;;;24.57;;
18084;SDS011;9169;44.492;11.372;2023-03-01T09:17:09;33.30;;;25.00;;
18084;SDS011;9169;44.492;11.372;2023-03-01T09:19:38;30.20;;;23.60;;
18084;SDS011;9169;44.492;11.372;2023-03-01T09:22:06;32.53;;;23.87;;
18084;SDS011;9169;44.492;11.372;2023-03-01T09:24:35;32.83;;;24.10;;
18084;SDS011;9169;44.492;11.372;2023-03-01T09:27:03;33.53;;;24.27;;
18084;SDS011;9169;44.492;11.372;2023-03-01T09:29:35;29.63;;;21.00;;
18084;SDS011;9169;44.492;11.372;2023-03-01T09:32:03;27.33;;;20.43;;
18084;SDS011;9169;44.492;11.372;2023-03-01T09:34:33;23.97;;;17.30;;
18084;SDS011;9169;44.492;11.372;2023-03-01T09:37:22;28.60;;;21.13;;
18084;SDS011;9169;44.492;11.372;2023-03-01T09:39:51;26.87;;;20.20;;
18084;SDS011;9169;44.492;11.372;2023-03-01T09:42:19;31.73;;;22.80;;
18084;SDS011;9169;44.492;11.372;2023-03-01T09:44:49;25.10;;;17.90;;
18084;SDS011;9169;44.492;11.372;2023-03-01T09:47:24;30.07;;;21.40;;
18084;SDS011;9169;44.492;11.372;2023-03-01T09:50:00;24.50;;;17.53;;
18084;SDS011;9169;44.492;11.372;2023-03-01T09:52:34;25.07;;;18.60;;
18084;SDS011;9169;44.492;11.372;2023-03-01T09:55:09;26.27;;;19.10;;
18084;SDS011;9169;44.492;11.372;2023-03-01T09:57:41;26.00;;;18.00;;
18084;SDS011;9169;44.492;11.372;2023-03-01T10:00:20;27.97;;;19.63;;
18084;SDS011;9169;44.492;11.372;2023-03-01T10:03:00;26.20;;;19.83;;
18084;SDS011;9169;44.492;11.372;2023-03-01T10:05:41;25.13;;;19.40;;
18084;SDS011;9169;44.492;11.372;2023-03-01T10:08:19;29.27;;;19.40;;
18084;SDS011;9169;44.492;11.372;2023-03-01T10:10:59;25.93;;;18.10;;
18084;SDS011;9169;44.492;11.372;2023-03-01T10:13:29;25.93;;;19.07;;
18084;SDS011;9169;44.492;11.372;2023-03-01T10:16:05;23.77;;;17.03;;
18084;SDS011;9169;44.492;11.372;2023-03-01T10:18:39;25.23;;;18.87;;
18084;SDS011;9169;44.492;11.372;2023-03-01T10:21:13;28.13;;;18.30;;
18084;SDS011;9169;44.492;11.372;2023-03-01T10:23:43;28.57;;;20.10;;
18084;SDS011;9169;44.492;11.372;2023-03-01T10:26:15;26.20;;;19.40;;
18084;SDS011;9169;44.492;11.372;2023-03-01T10:28:58;26.10;;;18.60;;
18084;SDS011;9169;44.492;11.372;2023-03-01T10:31:33;28.17;;;18.27;;
18084;SDS011;9169;44.492;11.372;2023-03-01T10:34:08;24.63;;;17.93;;
18084;SDS011;9169;44.492;11.372;2023-03-01T10:36:41;21.90;;;16.20;;
18084;SDS011;9169;44.492;11.372;2023-03-01T10:39:12;30.13;;;21.20;;
18084;SDS011;9169;44.492;11.372;2023-03-01T10:42:00;27.83;;;19.63;;
18084;SDS011;9169;44.492;11.372;2023-03-01T10:44:37;22.43;;;16.30;;
18084;SDS011;9169;44.492;11.372;2023-03-01T10:47:13;21.80;;;16.70;;
18084;SDS011;9169;44.492;11.372;2023-03-01T10:49:57;26.60;;;19.37;;
18084;SDS011;9169;44.492;11.372;2023-03-01T10:52:29;24.60;;;15.40;;
18084;SDS011;9169;44.492;11.372;2023-03-01T10:55:01;25.43;;;17.33;;
18084;SDS011;9169;44.492;11.372;2023-03-01T10:57:36;22.33;;;17.40;;
18084;SDS011;9169;44.492;11.372;2023-03-01T11:00:18;29.47;;;17.50;;
18084;SDS011;9169;44.492;11.372;2023-03-01T11:02:51;22.53;;;17.57;;
18084;SDS011;9169;44.492;11.372;2023-03-01T11:05:36;26.00;;;17.53;;
18084;SDS011;9169;44.492;11.372;2023-03-01T11:08:28;27.50;;;19.37;;
18084;SDS011;9169;44.492;11.372;2023-03-01T11:11:20;27.90;;;17.73;;
18084;SDS011;9169;44.492;11.372;2023-03-01T11:13:55;25.27;;;18.03;;
18084;SDS011;9169;44.492;11.372;2023-03-01T11:16:27;26.93;;;18.67;;
18084;SDS011;9169;44.492;11.372;2023-03-01T11:18:59;24.53;;;18.17;;
18084;SDS011;9169;44.492;11.372;2023-03-01T11:21:32;23.20;;;18.13;;
18084;SDS011;9169;44.492;11.372;2023-03-01T11:24:03;25.47;;;18.27;;
18084;SDS011;9169;44.492;11.372;2023-03-01T11:26:38;26.20;;;19.37;;
18084;SDS011;9169;44.492;11.372;2023-03-01T11:29:12;24.20;;;17.73;;
18084;SDS011;9169;44.492;11.372;2023-03-01T11:31:49;23.80;;;17.07;;
18084;SDS011;9169;44.492;11.372;2023-03-01T11:34:24;20.53;;;15.47;;
18084;SDS011;9169;44.492;11.372;2023-03-01T11:37:09;27.30;;;17.93;;
18084;SDS011;9169;44.492;11.372;2023-03-01T11:39:46;23.40;;;17.57;;
18084;SDS011;9169;44.492;11.372;2023-03-01T11:42:24;24.20;;;17.10;;
18084;SDS011;9169;44.492;11.372;2023-03-01T11:44:58;26.43;;;19.27;;
18084;SDS011;9169;44.492;11.372;2023-03-01T11:47:31;21.90;;;14.93;;
18084;SDS011;9169;44.492;11.372;2023-03-01T11:50:16;28.13;;;18.27;;
18084;SDS011;9169;44.492;11.372;2023-03-01T11:52:56;25.63;;;17.40;;
18084;SDS011;9169;44.492;11.372;2023-03-01T11:55:44;26.60;;;18.50;;
18084;SDS011;9169;44.492;11.372;2023-03-01T11:58:27;28.60;;;20.40;;
18084;SDS011;9169;44.492;11.372;2023-03-01T12:01:17;27.00;;;18.53;;
18084;SDS011;9169;44.492;11.372;2023-03-01T12:04:10;24.30;;;18.00;;
18084;SDS011;9169;44.492;11.372;2023-03-01T12:07:05;24.83;;;17.73;;
18084;SDS011;9169;44.492;11.372;2023-03-01T12:09:48;29.20;;;20.17;;
18084;SDS011;9169;44.492;11.372;2023-03-01T12:12:32;29.17;;;18.27;;
18084;SDS011;9169;44.492;11.372;2023-03-01T12:18:08;27.63;;;18.27;;
18084;SDS011;9169;44.492;11.372;2023-03-01T12:20:46;24.30;;;17.60;;
18084;SDS011;9169;44.492;11.372;2023-03-01T12:26:25;26.70;;;20.10;;
18084;SDS011;9169;44.492;11.372;2023-03-01T12:29:16;27.07;;;19.43;;
18084;SDS011;9169;44.492;11.372;2023-03-01T12:37:59;26.03;;;19.33;;
18084;SDS011;9169;44.492;11.372;2023-03-01T12:43:36;25.87;;;18.23;;
18084;SDS011;9169;44.492;11.372;2023-03-01T12:46:18;48.17;;;32.37;;
18084;SDS011;9169;44.492;11.372;2023-03-01T12:48:55;38.70;;;28.00;;
18084;SDS011;9169;44.492;11.372;2023-03-01T12:51:37;39.37;;;25.80;;
18084;SDS011;9169;44.492;11.372;2023-03-01T12:54:10;27.00;;;18.20;;
18084;SDS011;9169;44.492;11.372;2023-03-01T12:56:42;23.97;;;18.60;;
18084;SDS011;9169;44.492;11.372;2023-03-01T12:59:19;26.20;;;18.27;;
18084;SDS011;9169;44.492;11.372;2023-03-01T13:02:00;25.17;;;18.00;;
18084;SDS011;9169;44.492;11.372;2023-03-01T13:04:49;27.43;;;20.43;;
18084;SDS011;9169;44.492;11.372;2023-03-01T13:07:25;24.30;;;17.90;;
18084;SDS011;9169;44.492;11.372;2023-03-01T13:10:02;24.57;;;19.20;;
18084;SDS011;9169;44.492;11.372;2023-03-01T13:12:49;27.23;;;18.93;;
18084;SDS011;9169;44.492;11.372;2023-03-01T13:15:32;26.93;;;19.00;;
18084;SDS011;9169;44.492;11.372;2023-03-01T13:18:11;24.80;;;18.30;;
18084;SDS011;9169;44.492;11.372;2023-03-01T13:20:58;28.67;;;18.80;;
18084;SDS011;9169;44.492;11.372;2023-03-01T13:23:30;23.00;;;17.37;;
18084;SDS011;9169;44.492;11.372;2023-03-01T13:26:14;24.13;;;17.10;;
18084;SDS011;9169;44.492;11.372;2023-03-01T13:28:48;21.37;;;16.23;;
18084;SDS011;9169;44.492;11.372;2023-03-01T13:34:46;23.43;;;17.53;;
18084;SDS011;9169;44.492;11.372;2023-03-01T13:37:27;25.37;;;18.00;;
18084;SDS011;9169;44.492;11.372;2023-03-01T13:39:58;22.60;;;16.67;;
18084;SDS011;9169;44.492;11.372;2023-03-01T13:42:32;20.97;;;16.67;;
18084;SDS011;9169;44.492;11.372;2023-03-01T13:45:20;20.47;;;16.50;;
18084;SDS011;9169;44.492;11.372;2023-03-01T13:47:53;21.23;;;16.60;;
18084;SDS011;9169;44.492;11.372;2023-03-01T13:50:27;23.30;;;18.00;;
18084;SDS011;9169;44.492;11.372;2023-03-01T13:53:02;25.50;;;18.03;;
18084;SDS011;9169;44.492;11.372;2023-03-01T13:55:36;21.67;;;16.27;;
18084;SDS011;9169;44.492;11.372;2023-03-01T13:58:15;21.73;;;16.60;;
18084;SDS011;9169;44.492;11.372;2023-03-01T14:00:55;21.80;;;17.10;;
18084;SDS011;9169;44.492;11.372;2023-03-01T14:03:26;20.37;;;15.47;;
18084;SDS011;9169;44.492;11.372;2023-03-01T14:06:00;21.70;;;17.27;;
18084;SDS011;9169;44.492;11.372;2023-03-01T14:08:40;20.40;;;16.00;;
18084;SDS011;9169;44.492;11.372;2023-03-01T14:11:18;20.53;;;16.50;;
18084;SDS011;9169;44.492;11.372;2023-03-01T14:14:10;21.37;;;16.97;;
18084;SDS011;9169;44.492;11.372;2023-03-01T14:20:02;21.53;;;16.37;;
18084;SDS011;9169;44.492;11.372;2023-03-01T14:22:38;21.60;;;16.97;;
18084;SDS011;9169;44.492;11.372;2023-03-01T14:28:03;21.07;;;16.67;;
18084;SDS011;9169;44.492;11.372;2023-03-01T14:30:42;19.93;;;16.47;;
18084;SDS011;9169;44.492;11.372;2023-03-01T14:33:20;20.93;;;16.33;;
18084;SDS011;9169;44.492;11.372;2023-03-01T14:35:54;22.67;;;16.57;;
18084;SDS011;9169;44.492;11.372;2023-03-01T14:38:30;23.83;;;15.77;;
18084;SDS011;9169;44.492;11.372;2023-03-01T14:41:04;18.23;;;14.47;;
18084;SDS011;9169;44.492;11.372;2023-03-01T14:43:35;17.70;;;14.43;;
18084;SDS011;9169;44.492;11.372;2023-03-01T14:46:05;16.33;;;13.80;;
18084;SDS011;9169;44.492;11.372;2023-03-01T14:48:33;18.50;;;13.83;;
18084;SDS011;9169;44.492;11.372;2023-03-01T14:51:02;20.60;;;15.27;;
18084;SDS011;9169;44.492;11.372;2023-03-01T14:53:34;19.30;;;15.50;;
18084;SDS011;9169;44.492;11.372;2023-03-01T14:56:16;18.23;;;15.30;;
18084;SDS011;9169;44.492;11.372;2023-03-01T14:58:45;18.80;;;15.20;;
18084;SDS011;9169;44.492;11.372;2023-03-01T15:01:15;16.73;;;14.27;;
18084;SDS011;9169;44.492;11.372;2023-03-01T15:03:45;21.70;;;16.73;;
18084;SDS011;9169;44.492;11.372;2023-03-01T15:06:16;19.20;;;15.50;;
18084;SDS011;9169;44.492;11.372;2023-03-01T15:08:48;18.33;;;15.70;;
18084;SDS011;9169;44.492;11.372;2023-03-01T15:11:21;18.70;;;14.43;;
18084;SDS011;9169;44.492;11.372;2023-03-01T15:13:51;19.63;;;15.80;;
18084;SDS011;9169;44.492;11.372;2023-03-01T15:16:21;21.00;;;17.10;;